Harrisburg, PA

9:46 AM EST on January 29, 2015 (GMT -0500)
Bellevue Park | Change Station
CLOSE
Current Station
Personal Weather Station
Location: Harrisburg, PA
Elevation: 498 ft
Nearby Weather Stations

Elev 498 ft 40.27 °N, 76.85 °W | Updated 0 second ago

Partly Cloudy
Partly Cloudy
22.0 °F
Feels Like 22 °F
N
0.0
Wind Variable Wind from SE
Gusts 1.0 mph

Today
High -- | Low -- °F
--% Chance of Precip.
Yesterday
High -- | Low -- °F
Precip. -- in
7:19 AM 5:22 PM
Waxing Gibbous, 74% visible
Pressure 30.31 in
Visibility 7.0 miles
Clouds Mostly Cloudy 25000 ft
Windchill 22 °F
Dew Point 13 °F
Humidity 67%
Rainfall 0.00 in
Snow Depth Not available.
UV 0 out of 12
Pollen .10 out of 12
Air Quality Not available.
Flu Activity Not available.
METAR KMDT 291356Z 12004KT 7SM BKN250 M09/M13 A3029 RMK AO2 SLP262 T10891128

More Conditions Fewer Conditions

Pressure 30.31 in
Visibility 7.0 miles
Clouds Mostly Cloudy 25000 ft
Windchill 22 °F
Dew Point 13 °F
Humidity 67%
Rainfall 0.00 in
Snow Depth Not available.
UV 0 out of 12
Pollen .10 out of 12
Air Quality Not available.
Flu Activity Not available.
METAR KMDT 291356Z 12004KT 7SM BKN250 M09/M13 A3029 RMK AO2 SLP262 T10891128

More Conditions Fewer Conditions

10-Day Weather Forecast

Almanac

Astronomy

Jan. 29, 2015 Rise Set
Actual Time
Civil Twilight
Nautical Twilight
Astronomical Twilight
Moon
Length of Visible Light
Length of Day
Tomorrow will be .
, % of the Moon is Illuminated

Today's Extremes

State Highs State Lows

Community

WunderPhotos

Upload Photos

1,791,443 photos uploaded!

WunderBlogs® & News

Nearby

Air Quality

  Air Quality AQ Index Pollutant
Not available.

Snow Depth

Station Depth Elevation

Earthquake Activity

City Distance Mag. Time & Date
Minimum magnitude displayed is 2.5.

Coastal Water Temperatures

Place Temperature

Nearby Weather Stations